Aspen, CO (81611)

9:20 PM MST on February 19, 2017 (GMT -0700)
Tiehack Aspen Colorado | | Change Station
Active Advisory: Winter Weather Advisory

Elev 8500 ft 39.20 °N, 106.85 °W | Updated 42 seconds ago

Overcast
Overcast
30.0 °F
Feels Like 30 °F
N
0.0
Wind Variable Wind from WSW
Gusts 0.0 mph

Today
High -- | Low -- °F
--% Chance of Precip.
Yesterday
High -- | Low -- °F
Precip. -- in
Pressure 29.77 in
Visibility 10.0 miles
Clouds Overcast 6000 ft
Windchill 30 °F
Dew Point 31 °F
Humidity 100%
Rainfall 0.02 in
Snow Depth Not available.
6:53 AM 5:49 PM
Last Quarter, 37% visible
METAR KASE 200353Z AUTO 00000KT 10SM OVC060 01/M02 A2987 RMK AO2 SLP081 T00061022 $
Pressure 29.77 in
Visibility 10.0 miles
Clouds Overcast 6000 ft
Windchill 30 °F
Dew Point 31 °F
Humidity 100%
Rainfall 0.02 in
Snow Depth Not available.
6:53 AM 5:49 PM
Last Quarter, 37% visible
METAR KASE 200353Z AUTO 00000KT 10SM OVC060 01/M02 A2987 RMK AO2 SLP081 T00061022 $

Get Your Daily Forecast Email!

Thanks for signing up!

Be on the lookout for a verification email in your inbox.

You'll start receiving the daily forecast at 8 AM.

×

10-Day Weather Forecast

Almanac

Astronomy

Feb. 19, 2017 Rise Set
Actual Time
Civil Twilight
Nautical Twilight
Astronomical Twilight
Moon
Length of Visible Light
Length of Day
Tomorrow will be .
, % of the Moon is Illuminated

Today's Extremes

State Highs State Lows

Community

WunderPhotos

Upload Photos

1,962,540 photos uploaded!

WunderBlog® & News

Nearby

Air Quality

  Air Quality AQ Index Pollutant
Not available.

Snow Depth

Station Depth Elevation

Earthquake Activity

City Distance Mag. Time & Date
Minimum magnitude displayed is 2.5.

Coastal Water Temperatures

Place Temperature

Stations

Nearby Weather Stations

Station Location Temp. Windchill Dew Point Humidity Wind Precip. Elev Updated Type
                   

Watches & Warnings

Winter Weather Advisory
Issued: 5:57 PM MST Feb. 19, 2017 – National Weather Service

... Winter Weather Advisory remains in effect until 7 am MST
Monday above 9500 feet...

* locations include the cities of... Taylor Park... Trappers Lake.

* Timing... snow showers will continue through late tonight. The
snow may be heavy at times.

* Snow accumulation... an additional 3 to 5 inches of snow will be
possible.

* Winds... west 5 to 15 mph with gusts up to 30 mph.

* Impacts... moderate and occasionally heavy snowfall will make
travel difficult especially over mountain passes. Expect
roadways especially bridges and overpasses to become slushy...
icy and snow packed.

Precautionary/preparedness actions...

A Winter Weather Advisory means that periods of snow and/or
blowing snow will cause travel difficulties. Be prepared for
slippery roads and limited visibilities... and use caution while
driving.